createdAt,value
2019-03-08T00:04:45.757Z,11.73
2019-03-08T00:09:39.451Z,15.20
2019-03-08T00:14:33.135Z,12.77
2019-03-08T00:19:26.817Z,15.43
2019-03-08T00:24:20.208Z,17.90
2019-03-08T00:29:13.586Z,14.30
2019-03-08T00:34:07.253Z,15.63
2019-03-08T00:39:00.634Z,14.67
2019-03-08T00:43:54.016Z,18.10
2019-03-08T00:48:47.700Z,17.07
2019-03-08T00:53:41.078Z,15.50
2019-03-08T00:58:34.495Z,23.60
2019-03-08T01:03:28.146Z,19.13
2019-03-08T01:08:21.516Z,19.77
2019-03-08T01:13:14.888Z,22.98
2019-03-08T01:18:08.246Z,22.50
2019-03-08T01:23:01.665Z,24.50
2019-03-08T01:27:55.949Z,27.60
2019-03-08T01:32:49.330Z,24.47
2019-03-08T01:37:42.786Z,23.50
2019-03-08T01:42:36.399Z,24.43
2019-03-08T01:47:29.784Z,27.07
2019-03-08T01:52:23.154Z,25.20
2019-03-08T01:57:16.526Z,23.30
2019-03-08T02:02:10.519Z,23.20
2019-03-08T02:07:03.310Z,24.60
2019-03-08T02:11:56.678Z,22.77
2019-03-08T02:16:50.049Z,33.50
2019-03-08T02:21:43.480Z,27.47
2019-03-08T02:26:37.115Z,24.47
2019-03-08T02:31:30.493Z,27.77
2019-03-08T02:36:23.877Z,22.43
2019-03-08T02:41:17.260Z,26.63
2019-03-08T02:46:10.673Z,26.60
2019-03-08T02:51:04.056Z,27.80
2019-03-08T02:55:57.445Z,29.40
2019-03-08T03:00:51.081Z,25.87
2019-03-08T03:05:44.500Z,18.43
2019-03-08T03:10:38.142Z,26.93
2019-03-08T03:15:31.847Z,20.13
2019-03-08T03:20:25.312Z,26.27
2019-03-08T03:25:18.917Z,20.07
2019-03-08T03:30:12.519Z,27.63
2019-03-08T03:35:05.989Z,21.90
2019-03-08T03:39:59.423Z,24.27
2019-03-08T03:44:52.804Z,25.53
2019-03-08T03:49:46.476Z,22.40
2019-03-08T03:54:40.227Z,29.10
2019-03-08T03:59:33.686Z,21.10
2019-03-08T04:04:27.149Z,27.47
2019-03-08T04:09:20.849Z,32.00
2019-03-08T04:14:14.225Z,27.80
2019-03-08T04:19:07.681Z,26.33
2019-03-08T04:24:01.175Z,23.73
2019-03-08T04:28:54.675Z,26.40
2019-03-08T04:33:48.211Z,26.43
2019-03-08T04:38:41.613Z,35.87
2019-03-08T04:43:35.123Z,29.40
2019-03-08T04:48:28.488Z,23.10
2019-03-08T04:53:22.192Z,26.60
2019-03-08T04:58:15.873Z,24.53
2019-03-08T05:03:09.293Z,29.47
2019-03-08T05:08:02.687Z,23.27
2019-03-08T05:12:56.316Z,21.87
2019-03-08T05:17:51.377Z,23.57
2019-03-08T05:22:44.803Z,24.17
2019-03-08T05:27:42.362Z,25.20
2019-03-08T05:32:36.028Z,22.15
2019-03-08T05:37:29.479Z,22.43
2019-03-08T05:42:23.060Z,20.00
2019-03-08T05:47:16.733Z,15.10
2019-03-08T05:52:10.223Z,18.37
2019-03-08T05:57:03.675Z,18.47
2019-03-08T06:01:57.174Z,11.20
2019-03-08T06:06:50.557Z,18.17
2019-03-08T06:11:44.259Z,14.00
2019-03-08T06:16:37.646Z,14.83
2019-03-08T06:21:31.333Z,18.27
2019-03-08T06:26:25.016Z,15.90
2019-03-08T06:31:18.385Z,18.87
2019-03-08T06:36:12.072Z,17.23
2019-03-08T06:41:05.486Z,13.67
2019-03-08T06:45:59.137Z,17.00
2019-03-08T06:50:52.815Z,20.20
2019-03-08T06:55:46.259Z,17.03
2019-03-08T07:00:59.134Z,15.90
2019-03-08T07:05:52.511Z,14.63
2019-03-08T07:10:45.989Z,13.70
2019-03-08T07:15:39.668Z,15.10
2019-03-08T07:20:52.317Z,17.33
2019-03-08T07:25:59.741Z,14.00
2019-03-08T07:31:11.088Z,14.17
2019-03-08T07:36:29.717Z,12.73
2019-03-08T07:41:48.772Z,11.83
2019-03-08T07:47:10.607Z,13.10
2019-03-08T07:52:22.455Z,19.33
2019-03-08T07:57:50.645Z,15.70
2019-03-08T08:03:09.075Z,14.40
2019-03-08T08:08:07.717Z,28.93
2019-03-08T08:13:38.902Z,25.17
2019-03-08T08:18:41.696Z,17.53
2019-03-08T08:23:50.421Z,21.50
2019-03-08T08:29:03.344Z,19.37
2019-03-08T08:34:27.929Z,17.17
2019-03-08T08:39:28.831Z,19.17
2019-03-08T08:44:36.455Z,14.90
2019-03-08T08:49:38.693Z,18.37
2019-03-08T08:54:54.531Z,15.63
2019-03-08T08:59:52.829Z,17.53
2019-03-08T09:05:04.711Z,15.80
2019-03-08T09:10:17.383Z,13.90
2019-03-08T09:15:24.090Z,15.53
2019-03-08T09:20:48.718Z,19.00
2019-03-08T09:26:07.204Z,13.03
2019-03-08T09:31:06.772Z,15.70
2019-03-08T09:36:19.191Z,12.03
2019-03-08T09:41:27.347Z,21.40
2019-03-08T09:46:40.342Z,13.73
2019-03-08T09:51:51.730Z,16.03
2019-03-08T09:57:02.950Z,13.40
2019-03-08T10:02:11.659Z,13.07
2019-03-08T10:07:25.056Z,16.87
2019-03-08T10:12:40.654Z,15.40
2019-03-08T10:17:53.339Z,14.70
2019-03-08T10:23:02.666Z,14.33
2019-03-08T10:28:13.194Z,15.77
2019-03-08T10:33:46.277Z,18.03
2019-03-08T10:38:55.904Z,12.43
2019-03-08T10:44:11.950Z,11.47
2019-03-08T10:49:23.728Z,15.43
2019-03-08T10:54:32.366Z,15.90
2019-03-08T10:59:53.231Z,14.30
2019-03-08T11:05:11.721Z,13.83
2019-03-08T11:10:31.163Z,17.40
2019-03-08T11:15:44.021Z,12.60
2019-03-08T11:20:56.761Z,15.83
2019-03-08T11:26:09.409Z,18.43
2019-03-08T11:31:21.442Z,10.10
2019-03-08T11:36:23.000Z,18.10
2019-03-08T11:41:33.675Z,14.90
2019-03-08T11:46:31.869Z,11.50
2019-03-08T11:51:43.491Z,17.57
2019-03-08T11:57:02.125Z,18.10
2019-03-08T12:02:06.903Z,13.77
2019-03-08T12:07:22.208Z,15.33
2019-03-08T12:12:38.004Z,15.10
2019-03-08T12:17:38.093Z,17.93
2019-03-08T12:22:49.294Z,11.93
2019-03-08T12:28:01.461Z,15.63
2019-03-08T12:33:07.543Z,11.47
2019-03-08T12:38:18.068Z,12.93
2019-03-08T12:43:33.420Z,17.30
2019-03-08T12:48:50.559Z,9.93
2019-03-08T12:54:12.116Z,16.47
2019-03-08T12:59:30.663Z,10.13
2019-03-08T13:04:41.820Z,13.23
2019-03-08T13:10:03.421Z,11.80
2019-03-08T13:14:56.809Z,9.27
2019-03-08T13:19:50.439Z,9.23
2019-03-08T13:24:44.126Z,14.43
2019-03-08T13:29:37.799Z,9.40
2019-03-08T13:34:31.179Z,11.17
2019-03-08T13:39:24.857Z,8.83
2019-03-08T13:44:18.230Z,12.07
2019-03-08T13:49:11.622Z,7.80
2019-03-08T13:54:05.316Z,7.23
2019-03-08T13:58:58.711Z,10.63
2019-03-08T14:03:52.390Z,15.37
2019-03-08T14:08:45.743Z,9.23
2019-03-08T14:13:39.129Z,9.77
2019-03-08T14:18:32.622Z,6.03
2019-03-08T14:23:26.197Z,7.90
2019-03-08T14:28:19.583Z,7.43
2019-03-08T14:33:13.270Z,6.57
2019-03-08T14:38:09.839Z,5.87
2019-03-08T14:43:13.157Z,4.50
2019-03-08T14:48:05.886Z,5.80
2019-03-08T14:52:57.359Z,7.47
2019-03-08T14:57:50.913Z,4.40
2019-03-08T15:02:47.088Z,5.30
2019-03-08T15:07:41.056Z,6.30
2019-03-08T15:12:33.075Z,5.23
2019-03-08T15:17:25.331Z,7.67
2019-03-08T15:22:18.735Z,3.60
2019-03-08T15:27:12.410Z,4.60
2019-03-08T15:32:05.865Z,4.43
2019-03-08T15:36:59.508Z,4.37
2019-03-08T15:41:53.187Z,4.70
2019-03-08T15:46:46.874Z,4.57
2019-03-08T15:51:40.562Z,4.10
2019-03-08T15:56:34.246Z,5.33
2019-03-08T16:01:27.920Z,4.83
2019-03-08T16:06:21.330Z,5.07
2019-03-08T16:11:14.977Z,4.80
2019-03-08T16:16:08.402Z,3.33
2019-03-08T16:21:02.063Z,4.83
2019-03-08T16:25:55.524Z,6.00
2019-03-08T16:30:52.440Z,2.53
2019-03-08T16:36:00.087Z,5.37
2019-03-08T16:41:04.883Z,4.47
2019-03-08T16:46:20.545Z,5.23
2019-03-08T16:51:40.386Z,2.67
2019-03-08T16:56:59.229Z,7.00
2019-03-08T17:02:12.468Z,4.53
2019-03-08T17:07:23.790Z,4.73
2019-03-08T17:12:54.882Z,4.37
2019-03-08T17:18:16.270Z,5.27
2019-03-08T17:23:32.298Z,4.90
2019-03-08T17:28:43.692Z,4.13
2019-03-08T17:33:51.494Z,3.50
2019-03-08T17:39:05.171Z,6.33
2019-03-08T17:44:26.885Z,6.17
2019-03-08T17:49:29.523Z,6.23
2019-03-08T17:54:48.307Z,5.53
2019-03-08T17:59:48.858Z,3.80
2019-03-08T18:05:01.555Z,3.77
2019-03-08T18:10:08.474Z,4.93
2019-03-08T18:15:21.182Z,3.77
2019-03-08T18:20:39.823Z,4.27
2019-03-08T18:26:04.730Z,3.73
2019-03-08T18:31:20.052Z,3.17
2019-03-08T18:36:23.104Z,3.30
2019-03-08T18:41:33.085Z,3.93
2019-03-08T18:46:57.771Z,4.67
2019-03-08T18:52:09.478Z,3.73
2019-03-08T18:57:25.787Z,4.33
2019-03-08T19:02:41.470Z,5.20
2019-03-08T19:08:00.146Z,4.73
2019-03-08T19:13:02.451Z,5.20
2019-03-08T19:18:21.051Z,4.57
2019-03-08T19:23:26.593Z,5.10
2019-03-08T19:28:57.678Z,5.47
2019-03-08T19:34:25.311Z,5.97
2019-03-08T19:39:34.599Z,5.33
2019-03-08T19:44:37.952Z,4.30
2019-03-08T19:49:50.739Z,5.43
2019-03-08T19:55:15.419Z,4.50
2019-03-08T20:00:26.879Z,5.10
2019-03-08T20:05:39.577Z,5.37
2019-03-08T20:10:53.776Z,6.37
2019-03-08T20:16:09.101Z,4.90
2019-03-08T20:21:12.050Z,3.57
2019-03-08T20:26:24.971Z,3.13
2019-03-08T20:31:33.777Z,4.13
2019-03-08T20:36:49.506Z,7.47
2019-03-08T20:42:02.137Z,3.60
2019-03-08T20:47:02.422Z,2.63
2019-03-08T20:51:55.869Z,4.70
2019-03-08T20:56:49.240Z,4.23
2019-03-08T21:01:42.604Z,5.90
2019-03-08T21:06:35.982Z,5.33
2019-03-08T21:11:29.403Z,6.50
2019-03-08T21:16:22.809Z,4.40
2019-03-08T21:21:16.252Z,4.87
2019-03-08T21:26:09.845Z,3.60
2019-03-08T21:31:03.827Z,2.83
2019-03-08T21:35:57.509Z,3.37
2019-03-08T21:40:50.880Z,3.73
2019-03-08T21:45:44.256Z,4.10
2019-03-08T21:50:37.645Z,3.63
2019-03-08T21:55:31.027Z,3.27
2019-03-08T22:00:24.712Z,3.90
2019-03-08T22:05:22.212Z,5.27
2019-03-08T22:10:32.687Z,5.17
2019-03-08T22:15:26.336Z,4.43
2019-03-08T22:20:19.744Z,4.67
2019-03-08T22:25:13.399Z,6.77
2019-03-08T22:30:08.159Z,3.80
2019-03-08T22:35:01.530Z,3.33
2019-03-08T22:39:55.104Z,3.70
2019-03-08T22:44:48.764Z,4.07
2019-03-08T22:49:42.156Z,4.60
2019-03-08T22:54:35.530Z,5.47
2019-03-08T22:59:28.921Z,3.23
2019-03-08T23:04:22.276Z,4.07
2019-03-08T23:09:16.517Z,4.77
2019-03-08T23:14:09.956Z,4.87
2019-03-08T23:19:03.650Z,2.97
2019-03-08T23:23:57.032Z,3.10
2019-03-08T23:29:09.967Z,5.80
2019-03-08T23:34:03.368Z,4.23
2019-03-08T23:38:56.798Z,8.97
2019-03-08T23:43:50.215Z,6.20
2019-03-08T23:48:43.888Z,3.60
2019-03-08T23:53:37.596Z,4.20
2019-03-08T23:58:31.142Z,5.43
